sensor_id;sensor_type;location;lat;lon;timestamp;P1;durP1;ratioP1;P2;durP2;ratioP2
13592;SDS011;6867;50.998;4.250;2022-12-16T00:01:02;49.33;;;26.00;;
13592;SDS011;6867;50.998;4.250;2022-12-16T00:03:29;47.70;;;23.87;;
13592;SDS011;6867;50.998;4.250;2022-12-16T00:05:56;47.90;;;25.30;;
13592;SDS011;6867;50.998;4.250;2022-12-16T00:08:23;45.50;;;23.40;;
13592;SDS011;6867;50.998;4.250;2022-12-16T00:10:51;42.27;;;21.77;;
13592;SDS011;6867;50.998;4.250;2022-12-16T00:13:23;49.87;;;23.37;;
13592;SDS011;6867;50.998;4.250;2022-12-16T00:15:50;42.93;;;23.27;;
13592;SDS011;6867;50.998;4.250;2022-12-16T00:18:17;40.13;;;22.80;;
13592;SDS011;6867;50.998;4.250;2022-12-16T00:20:44;45.13;;;24.03;;
13592;SDS011;6867;50.998;4.250;2022-12-16T00:23:11;46.57;;;22.97;;
13592;SDS011;6867;50.998;4.250;2022-12-16T00:25:40;43.53;;;23.63;;
13592;SDS011;6867;50.998;4.250;2022-12-16T00:28:08;46.23;;;24.27;;
13592;SDS011;6867;50.998;4.250;2022-12-16T00:30:35;43.53;;;24.70;;
13592;SDS011;6867;50.998;4.250;2022-12-16T00:33:02;42.90;;;25.10;;
13592;SDS011;6867;50.998;4.250;2022-12-16T00:35:29;44.30;;;26.03;;
13592;SDS011;6867;50.998;4.250;2022-12-16T00:37:56;39.77;;;24.30;;
13592;SDS011;6867;50.998;4.250;2022-12-16T00:40:23;48.37;;;25.70;;
13592;SDS011;6867;50.998;4.250;2022-12-16T00:42:50;50.87;;;25.87;;
13592;SDS011;6867;50.998;4.250;2022-12-16T00:45:18;44.63;;;25.37;;
13592;SDS011;6867;50.998;4.250;2022-12-16T00:47:47;51.47;;;26.03;;
13592;SDS011;6867;50.998;4.250;2022-12-16T00:50:15;48.70;;;27.23;;
13592;SDS011;6867;50.998;4.250;2022-12-16T00:52:42;45.30;;;27.13;;
13592;SDS011;6867;50.998;4.250;2022-12-16T00:55:09;52.73;;;25.47;;
13592;SDS011;6867;50.998;4.250;2022-12-16T00:57:36;46.77;;;26.70;;
13592;SDS011;6867;50.998;4.250;2022-12-16T01:00:03;48.13;;;26.67;;
13592;SDS011;6867;50.998;4.250;2022-12-16T01:02:31;45.37;;;26.27;;
13592;SDS011;6867;50.998;4.250;2022-12-16T01:04:58;46.87;;;25.53;;
13592;SDS011;6867;50.998;4.250;2022-12-16T01:07:25;45.00;;;25.30;;
13592;SDS011;6867;50.998;4.250;2022-12-16T01:09:52;47.87;;;25.87;;
13592;SDS011;6867;50.998;4.250;2022-12-16T01:12:19;38.83;;;25.27;;
13592;SDS011;6867;50.998;4.250;2022-12-16T01:14:45;40.23;;;23.17;;
13592;SDS011;6867;50.998;4.250;2022-12-16T01:17:14;47.87;;;25.80;;
13592;SDS011;6867;50.998;4.250;2022-12-16T01:19:42;44.83;;;24.43;;
13592;SDS011;6867;50.998;4.250;2022-12-16T01:22:09;43.67;;;23.87;;
13592;SDS011;6867;50.998;4.250;2022-12-16T01:24:38;38.77;;;22.77;;
13592;SDS011;6867;50.998;4.250;2022-12-16T01:27:04;47.00;;;24.17;;
13592;SDS011;6867;50.998;4.250;2022-12-16T01:29:31;45.60;;;24.53;;
13592;SDS011;6867;50.998;4.250;2022-12-16T01:31:58;40.20;;;23.93;;
13592;SDS011;6867;50.998;4.250;2022-12-16T01:34:24;41.97;;;23.17;;
13592;SDS011;6867;50.998;4.250;2022-12-16T01:36:52;44.70;;;22.77;;
13592;SDS011;6867;50.998;4.250;2022-12-16T01:39:19;40.37;;;23.00;;
13592;SDS011;6867;50.998;4.250;2022-12-16T01:41:46;45.83;;;22.63;;
13592;SDS011;6867;50.998;4.250;2022-12-16T01:44:14;45.90;;;23.70;;
13592;SDS011;6867;50.998;4.250;2022-12-16T01:46:41;48.83;;;24.10;;
13592;SDS011;6867;50.998;4.250;2022-12-16T01:49:10;39.63;;;22.33;;
13592;SDS011;6867;50.998;4.250;2022-12-16T01:51:42;48.53;;;25.17;;
13592;SDS011;6867;50.998;4.250;2022-12-16T01:54:12;44.67;;;23.80;;
13592;SDS011;6867;50.998;4.250;2022-12-16T01:56:43;39.77;;;22.47;;
13592;SDS011;6867;50.998;4.250;2022-12-16T01:59:14;47.93;;;23.20;;
13592;SDS011;6867;50.998;4.250;2022-12-16T02:01:44;40.27;;;22.00;;
13592;SDS011;6867;50.998;4.250;2022-12-16T02:04:11;42.53;;;22.63;;
13592;SDS011;6867;50.998;4.250;2022-12-16T02:06:38;39.13;;;23.80;;
13592;SDS011;6867;50.998;4.250;2022-12-16T02:09:05;41.53;;;23.40;;
13592;SDS011;6867;50.998;4.250;2022-12-16T02:11:44;37.40;;;21.20;;
13592;SDS011;6867;50.998;4.250;2022-12-16T02:14:44;37.10;;;21.27;;
13592;SDS011;6867;50.998;4.250;2022-12-16T02:17:24;43.90;;;23.60;;
13592;SDS011;6867;50.998;4.250;2022-12-16T02:20:09;45.47;;;25.33;;
13592;SDS011;6867;50.998;4.250;2022-12-16T02:22:55;44.33;;;22.57;;
13592;SDS011;6867;50.998;4.250;2022-12-16T02:28:28;46.00;;;22.53;;
13592;SDS011;6867;50.998;4.250;2022-12-16T02:31:10;44.17;;;22.60;;
13592;SDS011;6867;50.998;4.250;2022-12-16T02:33:51;47.70;;;25.43;;
13592;SDS011;6867;50.998;4.250;2022-12-16T02:36:40;44.37;;;23.33;;
13592;SDS011;6867;50.998;4.250;2022-12-16T02:39:17;40.93;;;23.27;;
13592;SDS011;6867;50.998;4.250;2022-12-16T02:41:48;46.87;;;24.63;;
13592;SDS011;6867;50.998;4.250;2022-12-16T02:44:23;46.73;;;25.33;;
13592;SDS011;6867;50.998;4.250;2022-12-16T02:46:56;44.07;;;23.93;;
13592;SDS011;6867;50.998;4.250;2022-12-16T02:49:46;41.60;;;23.63;;
13592;SDS011;6867;50.998;4.250;2022-12-16T02:52:18;49.93;;;23.87;;
13592;SDS011;6867;50.998;4.250;2022-12-16T02:54:47;45.77;;;24.67;;
13592;SDS011;6867;50.998;4.250;2022-12-16T02:57:23;41.53;;;23.83;;
13592;SDS011;6867;50.998;4.250;2022-12-16T03:00:08;40.40;;;23.47;;
13592;SDS011;6867;50.998;4.250;2022-12-16T03:02:41;45.13;;;23.50;;
13592;SDS011;6867;50.998;4.250;2022-12-16T03:05:17;43.57;;;23.73;;
13592;SDS011;6867;50.998;4.250;2022-12-16T03:07:47;43.37;;;23.50;;
13592;SDS011;6867;50.998;4.250;2022-12-16T03:10:17;43.13;;;23.53;;
13592;SDS011;6867;50.998;4.250;2022-12-16T03:12:46;42.77;;;21.83;;
13592;SDS011;6867;50.998;4.250;2022-12-16T03:15:14;40.10;;;23.07;;
13592;SDS011;6867;50.998;4.250;2022-12-16T03:17:45;42.13;;;23.13;;
13592;SDS011;6867;50.998;4.250;2022-12-16T03:20:15;37.03;;;23.27;;
13592;SDS011;6867;50.998;4.250;2022-12-16T03:22:47;37.00;;;22.20;;
13592;SDS011;6867;50.998;4.250;2022-12-16T03:25:17;35.63;;;21.40;;
13592;SDS011;6867;50.998;4.250;2022-12-16T03:27:48;36.43;;;21.23;;
13592;SDS011;6867;50.998;4.250;2022-12-16T03:30:22;43.83;;;22.07;;
13592;SDS011;6867;50.998;4.250;2022-12-16T03:32:55;38.60;;;22.13;;
13592;SDS011;6867;50.998;4.250;2022-12-16T03:35:26;39.90;;;21.53;;
13592;SDS011;6867;50.998;4.250;2022-12-16T03:37:57;42.53;;;22.90;;
13592;SDS011;6867;50.998;4.250;2022-12-16T03:40:25;40.20;;;20.57;;
13592;SDS011;6867;50.998;4.250;2022-12-16T03:42:53;43.30;;;21.90;;
13592;SDS011;6867;50.998;4.250;2022-12-16T03:45:23;37.00;;;22.47;;
13592;SDS011;6867;50.998;4.250;2022-12-16T03:47:55;51.40;;;22.27;;
13592;SDS011;6867;50.998;4.250;2022-12-16T03:50:24;37.10;;;19.40;;
13592;SDS011;6867;50.998;4.250;2022-12-16T03:52:53;45.47;;;20.47;;
13592;SDS011;6867;50.998;4.250;2022-12-16T03:55:21;47.53;;;20.60;;
13592;SDS011;6867;50.998;4.250;2022-12-16T03:57:47;37.27;;;20.43;;
13592;SDS011;6867;50.998;4.250;2022-12-16T04:00:15;34.83;;;19.03;;
13592;SDS011;6867;50.998;4.250;2022-12-16T04:02:42;37.80;;;19.47;;
13592;SDS011;6867;50.998;4.250;2022-12-16T04:05:10;38.73;;;20.17;;
13592;SDS011;6867;50.998;4.250;2022-12-16T04:07:37;37.43;;;19.83;;
13592;SDS011;6867;50.998;4.250;2022-12-16T04:10:04;39.63;;;21.23;;
13592;SDS011;6867;50.998;4.250;2022-12-16T04:12:31;47.67;;;22.77;;
13592;SDS011;6867;50.998;4.250;2022-12-16T04:15:15;45.27;;;21.13;;
13592;SDS011;6867;50.998;4.250;2022-12-16T04:18:00;42.77;;;21.70;;
13592;SDS011;6867;50.998;4.250;2022-12-16T04:20:46;50.53;;;23.57;;
13592;SDS011;6867;50.998;4.250;2022-12-16T04:23:34;43.33;;;21.63;;
13592;SDS011;6867;50.998;4.250;2022-12-16T04:26:22;39.80;;;23.13;;
13592;SDS011;6867;50.998;4.250;2022-12-16T04:28:48;39.80;;;22.60;;
13592;SDS011;6867;50.998;4.250;2022-12-16T04:31:15;43.10;;;22.33;;
13592;SDS011;6867;50.998;4.250;2022-12-16T04:33:42;40.77;;;22.47;;
13592;SDS011;6867;50.998;4.250;2022-12-16T04:36:27;45.87;;;23.50;;
13592;SDS011;6867;50.998;4.250;2022-12-16T04:39:11;45.03;;;22.97;;
13592;SDS011;6867;50.998;4.250;2022-12-16T04:41:55;46.93;;;23.17;;
13592;SDS011;6867;50.998;4.250;2022-12-16T04:44:39;35.20;;;20.80;;
13592;SDS011;6867;50.998;4.250;2022-12-16T04:47:23;40.77;;;22.13;;
13592;SDS011;6867;50.998;4.250;2022-12-16T04:50:07;42.80;;;22.33;;
13592;SDS011;6867;50.998;4.250;2022-12-16T04:52:53;32.17;;;20.90;;
13592;SDS011;6867;50.998;4.250;2022-12-16T04:55:37;45.07;;;22.50;;
13592;SDS011;6867;50.998;4.250;2022-12-16T04:58:21;47.83;;;22.37;;
13592;SDS011;6867;50.998;4.250;2022-12-16T05:01:05;36.87;;;21.37;;
13592;SDS011;6867;50.998;4.250;2022-12-16T05:03:49;41.03;;;22.30;;
13592;SDS011;6867;50.998;4.250;2022-12-16T05:06:33;42.00;;;22.60;;
13592;SDS011;6867;50.998;4.250;2022-12-16T05:09:19;42.03;;;22.97;;
13592;SDS011;6867;50.998;4.250;2022-12-16T05:12:03;41.83;;;22.93;;
13592;SDS011;6867;50.998;4.250;2022-12-16T05:14:50;38.10;;;20.87;;
13592;SDS011;6867;50.998;4.250;2022-12-16T05:17:34;37.43;;;19.27;;
13592;SDS011;6867;50.998;4.250;2022-12-16T05:20:18;39.07;;;21.70;;
13592;SDS011;6867;50.998;4.250;2022-12-16T05:23:02;32.17;;;18.57;;
13592;SDS011;6867;50.998;4.250;2022-12-16T05:25:48;36.90;;;19.37;;
13592;SDS011;6867;50.998;4.250;2022-12-16T05:28:32;40.77;;;19.23;;
13592;SDS011;6867;50.998;4.250;2022-12-16T05:31:16;37.87;;;20.53;;
13592;SDS011;6867;50.998;4.250;2022-12-16T05:33:59;35.07;;;19.00;;
13592;SDS011;6867;50.998;4.250;2022-12-16T05:36:43;35.90;;;17.97;;
13592;SDS011;6867;50.998;4.250;2022-12-16T05:39:27;37.43;;;19.53;;
13592;SDS011;6867;50.998;4.250;2022-12-16T05:42:13;32.97;;;18.67;;
13592;SDS011;6867;50.998;4.250;2022-12-16T05:44:56;35.53;;;18.93;;
13592;SDS011;6867;50.998;4.250;2022-12-16T05:47:40;36.40;;;18.33;;
13592;SDS011;6867;50.998;4.250;2022-12-16T05:50:24;31.07;;;18.10;;
13592;SDS011;6867;50.998;4.250;2022-12-16T05:53:08;32.00;;;17.50;;
13592;SDS011;6867;50.998;4.250;2022-12-16T05:55:53;32.53;;;16.20;;
13592;SDS011;6867;50.998;4.250;2022-12-16T05:58:38;32.80;;;16.67;;
13592;SDS011;6867;50.998;4.250;2022-12-16T06:01:22;36.73;;;17.87;;
13592;SDS011;6867;50.998;4.250;2022-12-16T06:04:15;27.63;;;16.33;;
13592;SDS011;6867;50.998;4.250;2022-12-16T06:06:59;29.63;;;17.20;;
13592;SDS011;6867;50.998;4.250;2022-12-16T06:09:43;32.37;;;17.00;;
13592;SDS011;6867;50.998;4.250;2022-12-16T06:12:27;27.30;;;15.80;;
13592;SDS011;6867;50.998;4.250;2022-12-16T06:15:12;27.47;;;15.07;;
13592;SDS011;6867;50.998;4.250;2022-12-16T06:17:56;31.10;;;15.87;;
13592;SDS011;6867;50.998;4.250;2022-12-16T06:20:40;29.33;;;16.23;;
13592;SDS011;6867;50.998;4.250;2022-12-16T06:23:25;31.70;;;15.93;;
13592;SDS011;6867;50.998;4.250;2022-12-16T06:26:09;24.37;;;14.57;;
13592;SDS011;6867;50.998;4.250;2022-12-16T06:28:53;31.03;;;16.77;;
13592;SDS011;6867;50.998;4.250;2022-12-16T06:31:38;29.17;;;15.93;;
13592;SDS011;6867;50.998;4.250;2022-12-16T06:34:23;25.03;;;15.87;;
13592;SDS011;6867;50.998;4.250;2022-12-16T06:37:06;25.87;;;15.33;;
13592;SDS011;6867;50.998;4.250;2022-12-16T06:39:50;24.70;;;14.33;;
13592;SDS011;6867;50.998;4.250;2022-12-16T06:42:37;29.17;;;15.07;;
13592;SDS011;6867;50.998;4.250;2022-12-16T06:45:22;26.03;;;14.63;;
13592;SDS011;6867;50.998;4.250;2022-12-16T06:48:07;25.37;;;14.23;;
13592;SDS011;6867;50.998;4.250;2022-12-16T06:50:52;27.63;;;15.20;;
13592;SDS011;6867;50.998;4.250;2022-12-16T06:53:36;25.10;;;14.33;;
13592;SDS011;6867;50.998;4.250;2022-12-16T06:56:20;28.07;;;14.60;;
13592;SDS011;6867;50.998;4.250;2022-12-16T06:59:04;28.60;;;14.10;;
13592;SDS011;6867;50.998;4.250;2022-12-16T07:01:48;24.27;;;13.77;;
13592;SDS011;6867;50.998;4.250;2022-12-16T07:04:34;22.67;;;14.50;;
13592;SDS011;6867;50.998;4.250;2022-12-16T07:07:18;27.33;;;15.60;;
13592;SDS011;6867;50.998;4.250;2022-12-16T07:10:02;30.43;;;15.83;;
13592;SDS011;6867;50.998;4.250;2022-12-16T07:12:47;27.27;;;14.37;;
13592;SDS011;6867;50.998;4.250;2022-12-16T07:15:31;35.50;;;16.57;;
13592;SDS011;6867;50.998;4.250;2022-12-16T07:18:15;25.53;;;15.20;;
13592;SDS011;6867;50.998;4.250;2022-12-16T07:21:00;28.20;;;14.90;;
13592;SDS011;6867;50.998;4.250;2022-12-16T07:23:44;44.93;;;19.70;;
13592;SDS011;6867;50.998;4.250;2022-12-16T07:26:28;43.43;;;21.60;;
13592;SDS011;6867;50.998;4.250;2022-12-16T07:29:12;34.23;;;19.03;;
13592;SDS011;6867;50.998;4.250;2022-12-16T07:31:56;37.27;;;18.73;;
13592;SDS011;6867;50.998;4.250;2022-12-16T07:34:40;37.57;;;17.73;;
13592;SDS011;6867;50.998;4.250;2022-12-16T07:37:25;39.43;;;19.20;;
13592;SDS011;6867;50.998;4.250;2022-12-16T07:40:10;55.83;;;23.03;;
13592;SDS011;6867;50.998;4.250;2022-12-16T07:43:08;29.87;;;16.40;;
13592;SDS011;6867;50.998;4.250;2022-12-16T07:45:53;39.27;;;17.93;;
13592;SDS011;6867;50.998;4.250;2022-12-16T07:48:37;32.67;;;17.37;;
13592;SDS011;6867;50.998;4.250;2022-12-16T07:51:22;34.07;;;17.77;;
13592;SDS011;6867;50.998;4.250;2022-12-16T07:54:07;23.90;;;13.60;;
13592;SDS011;6867;50.998;4.250;2022-12-16T07:56:51;29.60;;;14.77;;
13592;SDS011;6867;50.998;4.250;2022-12-16T07:59:35;32.20;;;14.53;;
13592;SDS011;6867;50.998;4.250;2022-12-16T08:02:19;31.80;;;15.87;;
13592;SDS011;6867;50.998;4.250;2022-12-16T08:05:03;26.43;;;14.63;;
13592;SDS011;6867;50.998;4.250;2022-12-16T08:07:47;32.53;;;14.17;;
13592;SDS011;6867;50.998;4.250;2022-12-16T08:10:33;22.30;;;13.20;;
13592;SDS011;6867;50.998;4.250;2022-12-16T08:13:17;24.67;;;14.97;;
13592;SDS011;6867;50.998;4.250;2022-12-16T08:16:01;23.67;;;14.37;;
13592;SDS011;6867;50.998;4.250;2022-12-16T08:18:45;24.10;;;14.97;;
13592;SDS011;6867;50.998;4.250;2022-12-16T08:21:29;27.13;;;14.40;;
13592;SDS011;6867;50.998;4.250;2022-12-16T08:24:13;31.77;;;14.70;;
13592;SDS011;6867;50.998;4.250;2022-12-16T08:26:59;21.77;;;12.70;;
13592;SDS011;6867;50.998;4.250;2022-12-16T08:29:43;26.87;;;13.60;;
13592;SDS011;6867;50.998;4.250;2022-12-16T08:32:27;19.53;;;12.07;;
13592;SDS011;6867;50.998;4.250;2022-12-16T08:35:11;20.10;;;12.50;;
13592;SDS011;6867;50.998;4.250;2022-12-16T08:37:55;24.87;;;14.27;;
13592;SDS011;6867;50.998;4.250;2022-12-16T08:40:40;27.43;;;14.40;;
13592;SDS011;6867;50.998;4.250;2022-12-16T08:43:26;26.43;;;14.50;;
13592;SDS011;6867;50.998;4.250;2022-12-16T08:46:13;28.10;;;14.53;;
13592;SDS011;6867;50.998;4.250;2022-12-16T08:48:57;29.77;;;15.17;;
13592;SDS011;6867;50.998;4.250;2022-12-16T08:51:41;28.73;;;14.57;;
13592;SDS011;6867;50.998;4.250;2022-12-16T08:54:25;26.23;;;14.57;;
13592;SDS011;6867;50.998;4.250;2022-12-16T08:57:09;36.03;;;15.17;;
13592;SDS011;6867;50.998;4.250;2022-12-16T08:59:54;20.87;;;12.77;;
13592;SDS011;6867;50.998;4.250;2022-12-16T09:02:38;22.57;;;12.80;;
13592;SDS011;6867;50.998;4.250;2022-12-16T09:05:22;22.33;;;12.10;;
13592;SDS011;6867;50.998;4.250;2022-12-16T09:08:06;22.47;;;12.90;;
13592;SDS011;6867;50.998;4.250;2022-12-16T09:10:50;27.97;;;15.00;;
13592;SDS011;6867;50.998;4.250;2022-12-16T09:13:34;25.23;;;13.80;;
13592;SDS011;6867;50.998;4.250;2022-12-16T09:16:19;24.83;;;14.47;;
13592;SDS011;6867;50.998;4.250;2022-12-16T09:19:04;25.80;;;13.70;;
13592;SDS011;6867;50.998;4.250;2022-12-16T09:21:56;29.33;;;15.27;;
13592;SDS011;6867;50.998;4.250;2022-12-16T09:24:52;27.57;;;15.90;;
13592;SDS011;6867;50.998;4.250;2022-12-16T09:27:36;33.57;;;17.93;;
13592;SDS011;6867;50.998;4.250;2022-12-16T09:30:20;28.03;;;15.33;;
13592;SDS011;6867;50.998;4.250;2022-12-16T09:33:05;30.07;;;17.37;;
13592;SDS011;6867;50.998;4.250;2022-12-16T09:35:49;29.73;;;16.07;;
13592;SDS011;6867;50.998;4.250;2022-12-16T09:38:34;29.50;;;17.63;;
13592;SDS011;6867;50.998;4.250;2022-12-16T09:41:27;33.53;;;18.50;;
13592;SDS011;6867;50.998;4.250;2022-12-16T09:44:25;34.97;;;18.20;;
13592;SDS011;6867;50.998;4.250;2022-12-16T09:47:19;37.40;;;18.30;;
13592;SDS011;6867;50.998;4.250;2022-12-16T09:50:15;36.47;;;16.47;;
13592;SDS011;6867;50.998;4.250;2022-12-16T09:53:02;36.87;;;20.20;;
13592;SDS011;6867;50.998;4.250;2022-12-16T09:55:49;32.00;;;18.53;;
13592;SDS011;6867;50.998;4.250;2022-12-16T09:58:35;36.17;;;20.43;;
13592;SDS011;6867;50.998;4.250;2022-12-16T10:01:23;30.13;;;18.23;;
13592;SDS011;6867;50.998;4.250;2022-12-16T10:04:09;34.87;;;19.13;;
13592;SDS011;6867;50.998;4.250;2022-12-16T10:06:56;35.70;;;20.20;;
13592;SDS011;6867;50.998;4.250;2022-12-16T10:09:43;36.00;;;19.73;;
13592;SDS011;6867;50.998;4.250;2022-12-16T10:12:38;34.63;;;18.93;;
13592;SDS011;6867;50.998;4.250;2022-12-16T10:15:30;35.73;;;19.10;;
13592;SDS011;6867;50.998;4.250;2022-12-16T10:18:24;42.00;;;20.97;;
13592;SDS011;6867;50.998;4.250;2022-12-16T10:21:20;38.20;;;21.27;;
13592;SDS011;6867;50.998;4.250;2022-12-16T10:24:14;44.83;;;20.83;;
13592;SDS011;6867;50.998;4.250;2022-12-16T10:27:08;39.83;;;20.47;;
13592;SDS011;6867;50.998;4.250;2022-12-16T10:29:55;38.50;;;21.57;;
13592;SDS011;6867;50.998;4.250;2022-12-16T10:32:39;41.97;;;23.23;;
13592;SDS011;6867;50.998;4.250;2022-12-16T10:35:27;43.47;;;22.50;;
13592;SDS011;6867;50.998;4.250;2022-12-16T10:38:17;39.63;;;22.90;;
13592;SDS011;6867;50.998;4.250;2022-12-16T10:41:06;42.70;;;22.77;;
13592;SDS011;6867;50.998;4.250;2022-12-16T10:43:53;47.30;;;23.87;;
13592;SDS011;6867;50.998;4.250;2022-12-16T10:46:40;44.70;;;25.27;;
13592;SDS011;6867;50.998;4.250;2022-12-16T10:49:24;43.27;;;23.80;;
13592;SDS011;6867;50.998;4.250;2022-12-16T10:52:08;36.47;;;22.77;;
13592;SDS011;6867;50.998;4.250;2022-12-16T10:54:56;39.27;;;23.13;;
13592;SDS011;6867;50.998;4.250;2022-12-16T10:57:50;36.73;;;21.57;;
13592;SDS011;6867;50.998;4.250;2022-12-16T11:00:43;45.90;;;23.87;;
13592;SDS011;6867;50.998;4.250;2022-12-16T11:03:28;40.20;;;24.00;;
13592;SDS011;6867;50.998;4.250;2022-12-16T11:06:15;51.60;;;25.47;;
13592;SDS011;6867;50.998;4.250;2022-12-16T11:09:17;41.80;;;23.10;;
13592;SDS011;6867;50.998;4.250;2022-12-16T11:12:22;42.93;;;23.30;;
13592;SDS011;6867;50.998;4.250;2022-12-16T11:15:20;46.63;;;21.83;;
13592;SDS011;6867;50.998;4.250;2022-12-16T11:18:08;43.37;;;21.23;;
13592;SDS011;6867;50.998;4.250;2022-12-16T11:24:04;36.03;;;20.13;;
13592;SDS011;6867;50.998;4.250;2022-12-16T11:26:53;38.30;;;19.97;;
13592;SDS011;6867;50.998;4.250;2022-12-16T11:29:47;36.83;;;19.90;;
13592;SDS011;6867;50.998;4.250;2022-12-16T11:32:34;40.13;;;19.53;;
13592;SDS011;6867;50.998;4.250;2022-12-16T11:35:21;48.93;;;24.20;;
13592;SDS011;6867;50.998;4.250;2022-12-16T11:38:09;33.87;;;18.83;;
13592;SDS011;6867;50.998;4.250;2022-12-16T11:41:01;43.70;;;22.27;;
13592;SDS011;6867;50.998;4.250;2022-12-16T11:43:48;43.20;;;22.67;;
13592;SDS011;6867;50.998;4.250;2022-12-16T11:46:34;38.13;;;19.47;;
13592;SDS011;6867;50.998;4.250;2022-12-16T11:49:21;69.80;;;33.60;;
13592;SDS011;6867;50.998;4.250;2022-12-16T11:52:11;40.03;;;21.17;;
13592;SDS011;6867;50.998;4.250;2022-12-16T11:54:59;43.90;;;21.40;;
13592;SDS011;6867;50.998;4.250;2022-12-16T11:57:49;33.67;;;19.73;;
13592;SDS011;6867;50.998;4.250;2022-12-16T12:00:42;26.73;;;13.97;;
13592;SDS011;6867;50.998;4.250;2022-12-16T12:03:35;28.13;;;13.93;;
13592;SDS011;6867;50.998;4.250;2022-12-16T12:06:30;22.20;;;13.23;;
13592;SDS011;6867;50.998;4.250;2022-12-16T12:09:24;29.80;;;16.83;;
13592;SDS011;6867;50.998;4.250;2022-12-16T12:12:13;28.50;;;14.00;;
13592;SDS011;6867;50.998;4.250;2022-12-16T12:15:18;21.57;;;13.73;;
13592;SDS011;6867;50.998;4.250;2022-12-16T12:18:09;24.23;;;14.17;;
13592;SDS011;6867;50.998;4.250;2022-12-16T12:21:06;23.23;;;12.87;;
13592;SDS011;6867;50.998;4.250;2022-12-16T12:24:04;19.80;;;12.77;;
13592;SDS011;6867;50.998;4.250;2022-12-16T12:27:12;27.73;;;15.30;;
13592;SDS011;6867;50.998;4.250;2022-12-16T12:30:02;25.27;;;13.33;;
13592;SDS011;6867;50.998;4.250;2022-12-16T12:32:51;28.13;;;13.70;;
13592;SDS011;6867;50.998;4.250;2022-12-16T12:35:45;22.57;;;13.07;;
13592;SDS011;6867;50.998;4.250;2022-12-16T12:38:41;21.93;;;13.30;;
13592;SDS011;6867;50.998;4.250;2022-12-16T12:41:40;22.33;;;12.80;;
13592;SDS011;6867;50.998;4.250;2022-12-16T12:44:36;19.43;;;10.40;;
13592;SDS011;6867;50.998;4.250;2022-12-16T12:47:30;17.30;;;10.17;;
13592;SDS011;6867;50.998;4.250;2022-12-16T12:50:19;19.97;;;11.20;;
13592;SDS011;6867;50.998;4.250;2022-12-16T12:53:13;16.10;;;9.43;;
13592;SDS011;6867;50.998;4.250;2022-12-16T12:56:10;18.97;;;10.80;;
13592;SDS011;6867;50.998;4.250;2022-12-16T12:59:04;19.40;;;10.17;;
13592;SDS011;6867;50.998;4.250;2022-12-16T13:01:59;23.50;;;10.57;;
13592;SDS011;6867;50.998;4.250;2022-12-16T13:04:46;19.70;;;10.60;;
13592;SDS011;6867;50.998;4.250;2022-12-16T13:07:33;17.80;;;10.17;;
13592;SDS011;6867;50.998;4.250;2022-12-16T13:10:31;19.43;;;10.03;;
13592;SDS011;6867;50.998;4.250;2022-12-16T13:13:28;23.37;;;10.43;;
13592;SDS011;6867;50.998;4.250;2022-12-16T13:19:45;15.90;;;9.40;;
13592;SDS011;6867;50.998;4.250;2022-12-16T13:22:36;15.60;;;10.07;;
13592;SDS011;6867;50.998;4.250;2022-12-16T13:25:36;15.83;;;9.47;;
13592;SDS011;6867;50.998;4.250;2022-12-16T13:28:23;13.80;;;8.87;;
13592;SDS011;6867;50.998;4.250;2022-12-16T13:31:11;14.73;;;7.23;;
13592;SDS011;6867;50.998;4.250;2022-12-16T13:33:59;13.87;;;8.00;;
13592;SDS011;6867;50.998;4.250;2022-12-16T13:36:53;16.27;;;7.63;;
13592;SDS011;6867;50.998;4.250;2022-12-16T13:39:39;10.50;;;6.57;;
13592;SDS011;6867;50.998;4.250;2022-12-16T13:45:34;11.43;;;7.03;;
13592;SDS011;6867;50.998;4.250;2022-12-16T13:48:25;8.63;;;5.53;;
13592;SDS011;6867;50.998;4.250;2022-12-16T13:54:31;13.63;;;7.13;;
13592;SDS011;6867;50.998;4.250;2022-12-16T13:57:20;7.10;;;4.50;;
13592;SDS011;6867;50.998;4.250;2022-12-16T14:00:15;7.97;;;4.67;;
13592;SDS011;6867;50.998;4.250;2022-12-16T14:03:01;8.17;;;4.93;;
13592;SDS011;6867;50.998;4.250;2022-12-16T14:05:47;10.27;;;5.40;;
13592;SDS011;6867;50.998;4.250;2022-12-16T14:08:34;11.43;;;5.20;;
13592;SDS011;6867;50.998;4.250;2022-12-16T14:11:24;10.17;;;5.80;;
13592;SDS011;6867;50.998;4.250;2022-12-16T14:14:30;13.97;;;6.80;;
13592;SDS011;6867;50.998;4.250;2022-12-16T14:17:20;8.20;;;5.73;;
13592;SDS011;6867;50.998;4.250;2022-12-16T14:20:13;11.97;;;5.87;;
13592;SDS011;6867;50.998;4.250;2022-12-16T14:23:02;9.30;;;5.80;;
13592;SDS011;6867;50.998;4.250;2022-12-16T14:25:55;11.63;;;6.17;;
13592;SDS011;6867;50.998;4.250;2022-12-16T14:28:45;10.73;;;5.40;;
13592;SDS011;6867;50.998;4.250;2022-12-16T14:31:33;12.60;;;6.67;;
13592;SDS011;6867;50.998;4.250;2022-12-16T14:34:19;13.93;;;6.83;;
13592;SDS011;6867;50.998;4.250;2022-12-16T14:37:06;14.13;;;7.07;;
13592;SDS011;6867;50.998;4.250;2022-12-16T14:39:57;11.10;;;7.07;;
13592;SDS011;6867;50.998;4.250;2022-12-16T14:42:41;11.03;;;6.43;;
13592;SDS011;6867;50.998;4.250;2022-12-16T14:45:28;11.50;;;6.77;;
13592;SDS011;6867;50.998;4.250;2022-12-16T14:48:16;11.73;;;6.37;;
13592;SDS011;6867;50.998;4.250;2022-12-16T14:51:19;8.40;;;5.70;;
13592;SDS011;6867;50.998;4.250;2022-12-16T14:54:17;10.30;;;6.30;;
13592;SDS011;6867;50.998;4.250;2022-12-16T14:57:03;13.87;;;6.87;;
13592;SDS011;6867;50.998;4.250;2022-12-16T14:59:58;14.10;;;7.30;;
13592;SDS011;6867;50.998;4.250;2022-12-16T15:02:46;13.37;;;7.43;;
13592;SDS011;6867;50.998;4.250;2022-12-16T15:05:34;10.70;;;6.73;;
13592;SDS011;6867;50.998;4.250;2022-12-16T15:08:25;13.00;;;6.93;;
13592;SDS011;6867;50.998;4.250;2022-12-16T15:11:14;15.37;;;6.73;;
13592;SDS011;6867;50.998;4.250;2022-12-16T15:14:01;13.53;;;6.83;;
13592;SDS011;6867;50.998;4.250;2022-12-16T15:16:46;11.20;;;6.50;;
13592;SDS011;6867;50.998;4.250;2022-12-16T15:19:46;15.57;;;7.30;;
13592;SDS011;6867;50.998;4.250;2022-12-16T15:22:33;11.57;;;6.87;;
13592;SDS011;6867;50.998;4.250;2022-12-16T15:25:19;10.60;;;6.53;;
13592;SDS011;6867;50.998;4.250;2022-12-16T15:28:18;11.43;;;6.50;;
13592;SDS011;6867;50.998;4.250;2022-12-16T15:31:14;10.97;;;6.37;;
13592;SDS011;6867;50.998;4.250;2022-12-16T15:34:22;11.77;;;6.70;;
13592;SDS011;6867;50.998;4.250;2022-12-16T15:40:22;15.53;;;7.20;;
13592;SDS011;6867;50.998;4.250;2022-12-16T15:46:22;12.30;;;6.60;;
13592;SDS011;6867;50.998;4.250;2022-12-16T15:49:13;9.40;;;6.00;;
13592;SDS011;6867;50.998;4.250;2022-12-16T15:52:02;14.50;;;6.40;;
13592;SDS011;6867;50.998;4.250;2022-12-16T15:57:59;11.63;;;5.73;;
13592;SDS011;6867;50.998;4.250;2022-12-16T16:00:43;11.20;;;5.80;;
13592;SDS011;6867;50.998;4.250;2022-12-16T16:03:42;8.77;;;5.27;;
13592;SDS011;6867;50.998;4.250;2022-12-16T16:06:48;10.47;;;5.60;;
13592;SDS011;6867;50.998;4.250;2022-12-16T16:09:47;10.13;;;5.10;;
13592;SDS011;6867;50.998;4.250;2022-12-16T16:12:32;11.53;;;6.27;;
13592;SDS011;6867;50.998;4.250;2022-12-16T16:15:17;13.30;;;7.10;;
13592;SDS011;6867;50.998;4.250;2022-12-16T16:18:02;10.20;;;5.60;;
13592;SDS011;6867;50.998;4.250;2022-12-16T16:20:48;10.03;;;5.53;;
13592;SDS011;6867;50.998;4.250;2022-12-16T16:23:33;15.03;;;6.40;;
13592;SDS011;6867;50.998;4.250;2022-12-16T16:26:19;13.53;;;6.50;;
13592;SDS011;6867;50.998;4.250;2022-12-16T16:29:05;14.20;;;6.40;;
13592;SDS011;6867;50.998;4.250;2022-12-16T16:31:51;14.97;;;7.90;;
13592;SDS011;6867;50.998;4.250;2022-12-16T16:34:35;20.33;;;11.10;;
13592;SDS011;6867;50.998;4.250;2022-12-16T16:37:19;15.37;;;8.63;;